Buoy 51523

sailwx.info

Track history (hours):
 
Tides and Currents Weather Stations Pressure Air Temp Water Temp Dewpoint Dewpoint Depression Visibility Wind Speed Wind Dir Waves Ship Positions

Drifting buoy 51523

Last reported at 2016-Jul-25 13:45 UTC. Time now 2016-Jul-25 15:58 UTC.
Position N 23°06' E 131°56'.

Water temperature 30.9 ° C

Date/timePositionNaut miles runAvg speedWind from/ knotsBaromVisibWave heightAir tempDewpointWater temp
2016-Jul-25 13:45N 23°06' E 131°56'0 0.0 30.9
2016-Jul-25 12:15N 23°06' E 131°56'0 0.9 30.9
2016-Jul-25 12:00N 23°06' E 131°55'2 0.7 30.9
2016-Jul-25 09:45N 23°05' E 131°55'0 2.0 31.0
2016-Jul-25 09:30N 23°04' E 131°56'0 0.0 31.0
2016-Jul-25 09:15N 23°04' E 131°56'1 1.0 31.0
2016-Jul-25 08:00N 23°03' E 131°55'1 5.5 31.1
2016-Jul-25 07:45N 23°02' E 131°57'0 0.0 31.0
2016-Jul-25 07:30N 23°02' E 131°57'0 0.0 31.0
2016-Jul-25 06:45N 23°02' E 131°57'1 4.0 30.9
2016-Jul-25 06:30N 23°01' E 131°57'3 2.2 30.9
2016-Jul-25 05:00N 23°00' E 132°01'0 0.0 31.1
2016-Jul-25 01:00N 23°00' E 132°01'0 0.0 30.9
2016-Jul-25 00:45N 23°00' E 132°01'1 0.8 30.9
2016-Jul-24 23:15N 23°01' E 132°02'0 0.0 30.8
2016-Jul-24 22:30N 23°01' E 132°02'0 0.5 30.9
2016-Jul-24 22:15N 23°01' E 132°02'0 1.7 30.9
2016-Jul-24 22:00N 23°00' E 132°02'0 0.4 30.9
2016-Jul-24 21:15N 23°00' E 132°02'1 1.4 30.9
2016-Jul-24 20:45N 23°01' E 132°03'0 0.0 30.9
2016-Jul-24 20:30N 23°01' E 132°03'0 0.8 30.9
2016-Jul-24 20:15N 23°01' E 132°03'1 1.4 30.9
2016-Jul-24 19:45N 23°00' E 132°04'0 1.2 31.0
2016-Jul-24 19:30N 23°00' E 132°03'0 0.0 31.0
2016-Jul-24 19:15N 23°00' E 132°03'1 0.9 31.0
2016-Jul-24 17:45N 23°01' E 132°04'0 0.0 31.1
2016-Jul-24 17:30N 23°01' E 132°04'1 0.2 31.2
2016-Jul-24 12:15N 23°02' E 132°05'0 0.0 31.2
2016-Jul-24 10:45N 23°02' E 132°05'0 0.6 31.4
2016-Jul-24 10:00N 23°02' E 132°05'0 0.0 31.7
2016-Jul-24 09:45N 23°02' E 132°05'0 0.0 31.9
2016-Jul-24 09:30N 23°02' E 132°05'1 0.7 32.0
2016-Jul-24 08:30N 23°01' E 132°05'0 0.0 32.4
2016-Jul-24 08:15N 23°01' E 132°05'1 3.2 32.5
2016-Jul-24 08:00N 23°00' E 132°05'0 0.0 32.6
2016-Jul-24 07:45N 23°00' E 132°05'2 2.2 32.7
2016-Jul-24 07:00N 22°59' E 132°06'0 0.0 32.4
2016-Jul-24 06:45N 22°59' E 132°06'1 0.7 32.2
2016-Jul-24 05:15N 22°59' E 132°07'0 0.0 31.5
2016-Jul-24 05:00N 22°59' E 132°07'4 1.0 31.4
2016-Jul-24 01:15N 22°58' E 132°11'1 1.0 31.0
2016-Jul-23 23:45N 22°58' E 132°13'1 1.1 30.8
2016-Jul-23 22:45N 22°58' E 132°14'0 0.2 30.7
2016-Jul-23 22:15N 22°58' E 132°14'0 0.6 30.7
2016-Jul-23 21:45N 22°58' E 132°14'1 3.0 30.7
2016-Jul-23 21:15N 22°58' E 132°16'0 0.0 30.7
2016-Jul-23 21:00N 22°58' E 132°16'0 0.0 30.6
2016-Jul-23 20:45N 22°58' E 132°16'0 0.0 30.6
2016-Jul-23 20:30N 22°58' E 132°16'1 3.2 30.6
2016-Jul-23 20:15N 22°58' E 132°16'1 2.8 30.6
2016-Jul-23 20:00N 22°58' E 132°17'1 2.1 30.6
2016-Jul-23 19:30N 22°58' E 132°18'0 0.0 30.7
2016-Jul-23 18:00N 22°58' E 132°18'0 0.0 30.8
2016-Jul-23 17:45N 22°58' E 132°18'1 0.3 30.8
2016-Jul-23 12:45N 22°59' E 132°19'1 0.6 30.9
2016-Jul-23 11:15N 22°60' E 132°20'1 2.3 31.1
2016-Jul-23 11:00N 22°59' E 132°21'1 2.9 31.1
2016-Jul-23 10:45N 22°60' E 132°20'1 0.7 31.2
2016-Jul-23 09:45N 22°59' E 132°21'0 0.2 31.2
2016-Jul-23 08:45N 22°59' E 132°21'0 0.0 31.3
2016-Jul-23 08:30N 22°59' E 132°21'0 0.7 31.3
2016-Jul-23 08:00N 22°59' E 132°21'0 0.2 31.4
2016-Jul-23 07:15N 22°59' E 132°21'0 1.5 31.4
2016-Jul-23 07:00N 22°59' E 132°21'0 0.1 31.5
2016-Jul-23 05:30N 22°59' E 132°21'0 0.0 31.5
2016-Jul-23 05:15N 22°59' E 132°21'2 0.6 31.5
2016-Jul-23 01:45N 22°58' E 132°23'1 0.6 31.2
2016-Jul-23 00:00N 22°58' E 132°24'1 4.3 30.9
2016-Jul-22 23:45N 22°58' E 132°25'0 0.0 30.9
2016-Jul-22 22:30N 22°58' E 132°25'0 0.0 30.8
2016-Jul-22 22:15N 22°58' E 132°25'1 1.5 30.8
2016-Jul-22 21:45N 22°58' E 132°26'0 0.0 30.8
2016-Jul-22 21:30N 22°58' E 132°26'3 4.2 30.8
2016-Jul-22 20:45N 22°59' E 132°29'0 0.0 30.8
2016-Jul-22 20:00N 22°59' E 132°29'0 0.1 30.8
2016-Jul-22 18:15N 22°59' E 132°29'0 0.0 30.9
2016-Jul-22 18:00N 22°59' E 132°29'2 1.6 30.9
2016-Jul-22 16:30N 22°60' E 132°32'0 0.0 30.9
2016-Jul-22 16:15N 22°60' E 132°32'0 0.0 30.9
2016-Jul-22 13:15N 22°60' E 132°32'1 5.9 31.1
2016-Jul-22 13:00N 23°00' E 132°33'0 0.0 31.1
2016-Jul-22 11:30N 23°00' E 132°33'1 0.7 31.2
2016-Jul-22 10:00N 23°01' E 132°34'0 0.0 31.3
2016-Jul-22 09:45N 23°01' E 132°34'1 1.1 31.4
2016-Jul-22 09:15N 23°01' E 132°34'0 1.0 32.4
2016-Jul-22 09:00N 23°01' E 132°34'0 0.0 32.6
2016-Jul-22 08:15N 23°01' E 132°34'0 0.0 32.8
2016-Jul-22 08:00N 23°01' E 132°34'0 1.3 32.7
2016-Jul-22 07:45N 23°02' E 132°35'0 0.2 32.6
2016-Jul-22 07:30N 23°01' E 132°35'1 0.8 32.7
2016-Jul-22 05:45N 23°02' E 132°36'0 0.0 32.6
2016-Jul-22 05:30N 23°02' E 132°36'1 0.7 32.5
2016-Jul-22 04:00N 23°02' E 132°37'0 0.0 32.4
2016-Jul-22 03:45N 23°02' E 132°37'1 0.5 32.4
2016-Jul-22 01:45N 23°03' E 132°38'0 0.0 31.2
2016-Jul-22 00:15N 23°03' E 132°38'1 0.7 30.7
2016-Jul-21 22:45N 23°03' E 132°39'0 0.0 30.6
2016-Jul-21 22:30N 23°03' E 132°39'1 1.7 30.6
2016-Jul-21 22:00N 23°03' E 132°40'0 0.0 30.6
2016-Jul-21 21:15N 23°03' E 132°40'0 1.5 30.6
2016-Jul-21 21:00N 23°04' E 132°40'0 0.9 30.6
2016-Jul-21 20:30N 23°04' E 132°41'1 3.8 30.6
2016-Jul-21 20:15N 23°04' E 132°42'0 0.2 30.6
2016-Jul-21 18:15N 23°04' E 132°41'0 0.2 30.7
2016-Jul-21 16:45N 23°04' E 132°42'0 0.0 30.7
2016-Jul-21 16:30N 23°04' E 132°42'3 0.9 30.7
2016-Jul-21 12:45N 23°04' E 132°45'0 0.0 30.9
2016-Jul-21 12:30N 23°04' E 132°45'1 1.4 30.9
2016-Jul-21 12:00N 23°04' E 132°46'0 0.0 31.0
2016-Jul-21 11:45N 23°04' E 132°46'1 2.0 31.0
2016-Jul-21 11:00N 23°04' E 132°47'1 0.8 31.0
2016-Jul-21 10:15N 23°04' E 132°48'0 0.0 31.1
2016-Jul-21 10:00N 23°04' E 132°48'1 2.2 31.2
2016-Jul-21 09:45N 23°04' E 132°48'1 0.8 31.2
2016-Jul-21 08:30N 23°05' E 132°49'1 2.4 31.3
2016-Jul-21 08:15N 23°05' E 132°50'0 0.0 31.3
2016-Jul-21 08:00N 23°05' E 132°50'0 0.0 31.3
2016-Jul-21 07:45N 23°05' E 132°50'2 1.1 31.4
2016-Jul-21 05:45N 23°06' E 132°52'2 1.2 31.4
2016-Jul-21 04:15N 23°07' E 132°53'0 0.0 31.0
2016-Jul-21 04:00N 23°07' E 132°53'1 0.4 30.9
2016-Jul-21 00:45N 23°08' E 132°54'1 0.6 30.6
2016-Jul-20 22:45N 23°08' E 132°56'1 2.1 30.4
2016-Jul-20 22:30N 23°08' E 132°56'0 0.0 30.4
2016-Jul-20 22:15N 23°08' E 132°56'0 0.4 30.4
2016-Jul-20 21:45N 23°08' E 132°56'1 1.5 30.4
2016-Jul-20 21:15N 23°09' E 132°57'0 1.6 30.4
2016-Jul-20 21:00N 23°09' E 132°57'1 2.7 30.4
2016-Jul-20 20:45N 23°09' E 132°58'0 0.0 30.4
2016-Jul-20 20:00N 23°09' E 132°58'1 0.7 30.4
2016-Jul-20 18:30N 23°10' E 132°59'0 0.0 30.4
2016-Jul-20 18:15N 23°10' E 132°59'0 0.1 30.4
2016-Jul-20 16:45N 23°10' E 132°59'1 0.2 30.4
2016-Jul-20 13:45N 23°10' E 132°59'0 0.5 30.4
2016-Jul-20 13:00N 23°10' E 132°59'0 0.1 30.4
2016-Jul-20 12:15N 23°10' E 132°59'0 0.0 30.4
2016-Jul-20 12:00N 23°10' E 132°59'1 2.4 30.4
2016-Jul-20 11:30N 23°10' E 133°00'0 0.0 30.5
2016-Jul-20 11:15N 23°10' E 133°00'2 1.9 30.5
2016-Jul-20 10:15N 23°12' E 133°02'0 0.0 30.5
2016-Jul-20 10:00N 23°12' E 133°02'0 0.0 30.6
2016-Jul-20 09:00N 23°12' E 133°02'0 0.2 30.6
2016-Jul-20 08:45N 23°12' E 133°02'0 0.3 30.6
2016-Jul-20 08:30N 23°12' E 133°02'0 0.3 30.7
2016-Jul-20 08:15N 23°12' E 133°02'5 2.2 30.7
2016-Jul-20 06:00N 23°15' E 133°06'0 0.0 30.9
2016-Jul-20 05:45N 23°15' E 133°06'3 1.8 30.9
2016-Jul-20 04:15N 23°18' E 133°07'0 0.1 30.8
2016-Jul-20 01:00N 23°18' E 133°08'0 0.0 30.3
2016-Jul-20 00:45N 23°18' E 133°08'3 2.2 30.3
2016-Jul-19 23:15N 23°20' E 133°10'0 0.0 30.2
2016-Jul-19 23:00N 23°20' E 133°10'0 0.0 30.3
2016-Jul-19 22:45N 23°20' E 133°10'0 0.0 30.3
2016-Jul-19 22:15N 23°20' E 133°10'0 0.1 30.2
2016-Jul-19 21:30N 23°20' E 133°10'1 3.4 30.2
2016-Jul-19 21:15N 23°21' E 133°10'1 3.0 30.2
2016-Jul-19 21:00N 23°21' E 133°10'2 1.2 30.2
2016-Jul-19 19:30N 23°22' E 133°10'0 0.0 30.2
2016-Jul-19 18:45N 23°22' E 133°10'0 0.0 30.2
2016-Jul-19 18:30N 23°22' E 133°10'1 0.8 30.2
2016-Jul-19 17:00N 23°23' E 133°10'1 0.4 30.2
2016-Jul-19 13:30N 23°25' E 133°10'0 0.0 30.3
2016-Jul-19 13:15N 23°25' E 133°10'2 1.0 30.4
2016-Jul-19 11:45N 23°26' E 133°11'0 0.0 30.5
2016-Jul-19 11:30N 23°26' E 133°11'1 1.7 30.5
2016-Jul-19 11:00N 23°26' E 133°12'0 0.0 30.5
2016-Jul-19 10:45N 23°26' E 133°12'0 0.0 30.5
2016-Jul-19 09:30N 23°26' E 133°12'0 0.0 30.6
2016-Jul-19 09:15N 23°26' E 133°12'1 2.2 30.7
2016-Jul-19 09:00N 23°26' E 133°12'2 8.6 30.7
2016-Jul-19 08:45N 23°28' E 133°14'0 0.0 30.7
2016-Jul-19 08:30N 23°28' E 133°14'2 2.8 30.8
2016-Jul-19 07:45N 23°26' E 133°13'2 2.8 30.8
2016-Jul-19 07:00N 23°28' E 133°14'0 0.0 30.9
2016-Jul-19 06:15N 23°28' E 133°14'0 0.0 30.9
2016-Jul-19 06:00N 23°28' E 133°14'1 0.8 30.8
2016-Jul-19 04:30N 23°29' E 133°15'0 0.0 30.8
2016-Jul-19 04:15N 23°29' E 133°15'3 1.1 30.8
2016-Jul-19 01:15N 23°31' E 133°17'4 2.7 30.4
2016-Jul-18 23:45N 23°35' E 133°18'0 0.0 30.4
2016-Jul-18 21:30N 23°35' E 133°18'1 2.7 30.3
2016-Jul-18 21:15N 23°36' E 133°18'0 0.0 30.3
2016-Jul-18 21:00N 23°36' E 133°18'2 2.1 30.3
2016-Jul-18 20:00N 23°37' E 133°19'0 0.0 30.3
2016-Jul-18 19:45N 23°37' E 133°19'0 0.0 30.3
2016-Jul-18 19:30N 23°37' E 133°19'0 0.0 30.4
2016-Jul-18 19:15N 23°37' E 133°19'1 4.1 30.4
2016-Jul-18 19:00N 23°38' E 133°18'0 0.7 30.4
2016-Jul-18 18:45N 23°38' E 133°18'1 1.0 30.4
2016-Jul-18 17:15N 23°39' E 133°18'0 0.0 30.4
2016-Jul-18 17:00N 23°39' E 133°18'3 0.9 30.4
2016-Jul-18 13:45N 23°42' E 133°19'0 0.2 30.4
2016-Jul-18 13:00N 23°42' E 133°20'0 0.0 30.4
2016-Jul-18 12:45N 23°42' E 133°20'0 0.6 30.4
2016-Jul-18 12:00N 23°42' E 133°19'1 1.6 30.4
2016-Jul-18 11:15N 23°44' E 133°20'0 0.0 30.5
2016-Jul-18 11:00N 23°44' E 133°20'0 0.0 30.5
2016-Jul-18 10:00N 23°44' E 133°20'0 0.0 30.5
2016-Jul-18 09:45N 23°44' E 133°20'0 0.5 30.5
2016-Jul-18 09:15N 23°43' E 133°20'0 1.8 30.5
2016-Jul-18 09:00N 23°44' E 133°20'0 0.5 30.5
2016-Jul-18 08:15N 23°44' E 133°20'0 0.4 30.6
2016-Jul-18 07:30N 23°44' E 133°20'0 0.0 30.6
2016-Jul-18 07:15N 23°44' E 133°20'1 0.9 30.6
2016-Jul-18 06:30N 23°45' E 133°20'1 5.4 30.5
2016-Jul-18 06:15N 23°46' E 133°21'0 0.0 30.5
2016-Jul-18 04:45N 23°46' E 133°21'0 0.0 30.5
2016-Jul-18 04:30N 23°46' E 133°21'2 0.9 30.5
2016-Jul-18 01:45N 23°48' E 133°23'1 0.8 30.4
2016-Jul-18 00:00N 23°49' E 133°23'2 0.9 30.3
2016-Jul-17 21:45N 23°51' E 133°24'0 0.0 30.2
2016-Jul-17 21:30N 23°51' E 133°24'1 1.1 30.2
2016-Jul-17 20:15N 23°52' E 133°24'0 0.0 30.2
2016-Jul-17 20:00N 23°52' E 133°24'1 2.2 30.3
2016-Jul-17 19:45N 23°52' E 133°24'1 1.0 30.2
2016-Jul-17 19:00N 23°53' E 133°24'1 0.5 30.3
2016-Jul-17 17:30N 23°54' E 133°24'0 0.0 30.3
2016-Jul-17 17:15N 23°54' E 133°24'2 0.5 30.3
2016-Jul-17 13:15N 23°56' E 133°24'0 0.4 30.4
2016-Jul-17 12:30N 23°56' E 133°24'0 0.0 30.4
2016-Jul-17 12:15N 23°56' E 133°24'0 1.0 30.4
2016-Jul-17 11:45N 23°56' E 133°24'0 0.5 30.4
2016-Jul-17 10:45N 23°57' E 133°24'0 0.0 30.4
2016-Jul-17 09:45N 23°57' E 133°24'0 1.2 30.4
2016-Jul-17 09:30N 23°57' E 133°24'0 0.7 30.4
2016-Jul-17 09:15N 23°57' E 133°24'0 0.0 30.4
2016-Jul-17 09:00N 23°57' E 133°24'0 0.0 30.4
2016-Jul-17 08:45N 23°57' E 133°24'0 0.3 30.4
2016-Jul-17 08:00N 23°57' E 133°24'0 0.4 30.4
2016-Jul-17 07:30N 23°57' E 133°24'1 0.7 30.4
2016-Jul-17 06:30N 23°57' E 133°25'0 0.0 30.4
2016-Jul-17 05:00N 23°57' E 133°25'0 0.0 30.4
2016-Jul-17 04:45N 23°57' E 133°25'2 0.6 30.4
2016-Jul-17 02:00N 23°58' E 133°26'3 1.7 30.3
2016-Jul-17 00:30N 23°60' E 133°28'0 0.0 30.2
2016-Jul-17 00:15N 23°60' E 133°28'0 0.0 30.2
2016-Jul-16 22:30N 23°60' E 133°28'0 1.7 30.2
2016-Jul-16 22:15N 24°00' E 133°28'0 0.0 30.2
2016-Jul-16 22:00N 24°00' E 133°28'0 0.0 30.2
2016-Jul-16 21:45N 24°00' E 133°28'2 1.7 30.2
2016-Jul-16 20:45N 24°02' E 133°29'0 1.8 30.2
2016-Jul-16 20:30N 24°01' E 133°30'0 1.0 30.2
2016-Jul-16 20:15N 24°01' E 133°30'1 0.9 30.2
2016-Jul-16 19:15N 24°02' E 133°30'1 1.0 30.2
2016-Jul-16 17:45N 24°04' E 133°31'313.7 30.3
2016-Jul-16 17:30N 24°07' E 133°32'0 0.0 30.3
2016-Jul-16 13:45N 24°07' E 133°32'1 1.1 30.4
2016-Jul-16 12:45N 24°08' E 133°32'0 0.0 30.4
2016-Jul-16 12:30N 24°08' E 133°32'1 2.1 30.4
2016-Jul-16 12:00N 24°09' E 133°32'0 0.0 30.5
2016-Jul-16 11:45N 24°09' E 133°32'1 1.2 30.5
2016-Jul-16 11:00N 24°10' E 133°32'2 1.6 30.5
2016-Jul-16 10:00N 24°11' E 133°31'0 0.0 30.6
2016-Jul-16 09:30N 24°11' E 133°31'1 2.8 30.6
2016-Jul-16 09:15N 24°11' E 133°31'0 0.0 30.6
2016-Jul-16 08:30N 24°11' E 133°31'0 0.5 30.7
2016-Jul-16 08:15N 24°12' E 133°31'0 0.7 30.7
2016-Jul-16 07:45N 24°11' E 133°31'2 2.1 30.7
2016-Jul-16 06:45N 24°13' E 133°29'0 0.1 30.6
2016-Jul-16 05:00N 24°13' E 133°29'2 0.6 30.5
2016-Jul-16 02:15N 24°13' E 133°27'0 0.0 30.3
2016-Jul-16 00:45N 24°13' E 133°27'0 0.2 30.2
2016-Jul-15 22:45N 24°14' E 133°27'0 0.4 30.2
2016-Jul-15 22:15N 24°14' E 133°27'0 0.0 30.2
2016-Jul-15 22:00N 24°14' E 133°27'1 1.0 30.2
2016-Jul-15 21:15N 24°14' E 133°28'0 0.0 30.2
2016-Jul-15 21:00N 24°14' E 133°28'0 0.0 30.2
2016-Jul-15 20:45N 24°14' E 133°28'0 0.0 30.2
2016-Jul-15 20:30N 24°14' E 133°28'1 0.6 30.2
2016-Jul-15 19:30N 24°15' E 133°28'0 0.0 30.2
2016-Jul-15 19:15N 24°15' E 133°28'2 1.2 30.2
2016-Jul-15 17:45N 24°17' E 133°28'0 0.0 30.2
2016-Jul-15 17:30N 24°17' E 133°28'   30.2
Track history (hours):
 
Tides and Currents Weather Stations Pressure Air Temp Water Temp Dewpoint Dewpoint Depression Visibility Wind Speed Wind Dir Waves Ship Positions

Drifting buoy 51523

Last reported at 2016-Jul-25 13:45 UTC. Time now 2016-Jul-25 15:58 UTC.
Position N 23°06' E 131°56'.

Water temperature 30.9 ° C

Date/timePositionNaut miles runAvg speedWind from/ knotsBaromVisibWave heightAir tempDewpointWater temp
2016-Jul-25 13:45N 23°06' E 131°56'0 0.0 30.9
2016-Jul-25 12:15N 23°06' E 131°56'0 0.9 30.9
2016-Jul-25 12:00N 23°06' E 131°55'2 0.7 30.9
2016-Jul-25 09:45N 23°05' E 131°55'0 2.0 31.0
2016-Jul-25 09:30N 23°04' E 131°56'0 0.0 31.0
2016-Jul-25 09:15N 23°04' E 131°56'1 1.0 31.0
2016-Jul-25 08:00N 23°03' E 131°55'1 5.5 31.1
2016-Jul-25 07:45N 23°02' E 131°57'0 0.0 31.0
2016-Jul-25 07:30N 23°02' E 131°57'0 0.0 31.0
2016-Jul-25 06:45N 23°02' E 131°57'1 4.0 30.9
2016-Jul-25 06:30N 23°01' E 131°57'3 2.2 30.9
2016-Jul-25 05:00N 23°00' E 132°01'0 0.0 31.1
2016-Jul-25 01:00N 23°00' E 132°01'0 0.0 30.9
2016-Jul-25 00:45N 23°00' E 132°01'1 0.8 30.9
2016-Jul-24 23:15N 23°01' E 132°02'0 0.0 30.8
2016-Jul-24 22:30N 23°01' E 132°02'0 0.5 30.9
2016-Jul-24 22:15N 23°01' E 132°02'0 1.7 30.9
2016-Jul-24 22:00N 23°00' E 132°02'0 0.4 30.9
2016-Jul-24 21:15N 23°00' E 132°02'1 1.4 30.9
2016-Jul-24 20:45N 23°01' E 132°03'0 0.0 30.9
2016-Jul-24 20:30N 23°01' E 132°03'0 0.8 30.9
2016-Jul-24 20:15N 23°01' E 132°03'1 1.4 30.9
2016-Jul-24 19:45N 23°00' E 132°04'0 1.2 31.0
2016-Jul-24 19:30N 23°00' E 132°03'0 0.0 31.0
2016-Jul-24 19:15N 23°00' E 132°03'1 0.9 31.0
2016-Jul-24 17:45N 23°01' E 132°04'0 0.0 31.1
2016-Jul-24 17:30N 23°01' E 132°04'1 0.2 31.2
2016-Jul-24 12:15N 23°02' E 132°05'0 0.0 31.2
2016-Jul-24 10:45N 23°02' E 132°05'0 0.6 31.4
2016-Jul-24 10:00N 23°02' E 132°05'0 0.0 31.7
2016-Jul-24 09:45N 23°02' E 132°05'0 0.0 31.9
2016-Jul-24 09:30N 23°02' E 132°05'1 0.7 32.0
2016-Jul-24 08:30N 23°01' E 132°05'0 0.0 32.4
2016-Jul-24 08:15N 23°01' E 132°05'1 3.2 32.5
2016-Jul-24 08:00N 23°00' E 132°05'0 0.0 32.6
2016-Jul-24 07:45N 23°00' E 132°05'2 2.2 32.7
2016-Jul-24 07:00N 22°59' E 132°06'0 0.0 32.4
2016-Jul-24 06:45N 22°59' E 132°06'1 0.7 32.2
2016-Jul-24 05:15N 22°59' E 132°07'0 0.0 31.5
2016-Jul-24 05:00N 22°59' E 132°07'4 1.0 31.4
2016-Jul-24 01:15N 22°58' E 132°11'1 1.0 31.0
2016-Jul-23 23:45N 22°58' E 132°13'1 1.1 30.8
2016-Jul-23 22:45N 22°58' E 132°14'0 0.2 30.7
2016-Jul-23 22:15N 22°58' E 132°14'0 0.6 30.7
2016-Jul-23 21:45N 22°58' E 132°14'1 3.0 30.7
2016-Jul-23 21:15N 22°58' E 132°16'0 0.0 30.7
2016-Jul-23 21:00N 22°58' E 132°16'0 0.0 30.6
2016-Jul-23 20:45N 22°58' E 132°16'0 0.0 30.6
2016-Jul-23 20:30N 22°58' E 132°16'1 3.2 30.6
2016-Jul-23 20:15N 22°58' E 132°16'1 2.8 30.6
2016-Jul-23 20:00N 22°58' E 132°17'1 2.1 30.6
2016-Jul-23 19:30N 22°58' E 132°18'0 0.0 30.7
2016-Jul-23 18:00N 22°58' E 132°18'0 0.0 30.8
2016-Jul-23 17:45N 22°58' E 132°18'1 0.3 30.8
2016-Jul-23 12:45N 22°59' E 132°19'1 0.6 30.9
2016-Jul-23 11:15N 22°60' E 132°20'1 2.3 31.1
2016-Jul-23 11:00N 22°59' E 132°21'1 2.9 31.1
2016-Jul-23 10:45N 22°60' E 132°20'1 0.7 31.2
2016-Jul-23 09:45N 22°59' E 132°21'0 0.2 31.2
2016-Jul-23 08:45N 22°59' E 132°21'0 0.0 31.3
2016-Jul-23 08:30N 22°59' E 132°21'0 0.7 31.3
2016-Jul-23 08:00N 22°59' E 132°21'0 0.2 31.4
2016-Jul-23 07:15N 22°59' E 132°21'0 1.5 31.4
2016-Jul-23 07:00N 22°59' E 132°21'0 0.1 31.5
2016-Jul-23 05:30N 22°59' E 132°21'0 0.0 31.5
2016-Jul-23 05:15N 22°59' E 132°21'2 0.6 31.5
2016-Jul-23 01:45N 22°58' E 132°23'1 0.6 31.2
2016-Jul-23 00:00N 22°58' E 132°24'1 4.3 30.9
2016-Jul-22 23:45N 22°58' E 132°25'0 0.0 30.9
2016-Jul-22 22:30N 22°58' E 132°25'0 0.0 30.8
2016-Jul-22 22:15N 22°58' E 132°25'1 1.5 30.8
2016-Jul-22 21:45N 22°58' E 132°26'0 0.0 30.8
2016-Jul-22 21:30N 22°58' E 132°26'3 4.2 30.8
2016-Jul-22 20:45N 22°59' E 132°29'0 0.0 30.8
2016-Jul-22 20:00N 22°59' E 132°29'0 0.1 30.8
2016-Jul-22 18:15N 22°59' E 132°29'0 0.0 30.9
2016-Jul-22 18:00N 22°59' E 132°29'2 1.6 30.9
2016-Jul-22 16:30N 22°60' E 132°32'0 0.0 30.9
2016-Jul-22 16:15N 22°60' E 132°32'0 0.0 30.9
2016-Jul-22 13:15N 22°60' E 132°32'1 5.9 31.1
2016-Jul-22 13:00N 23°00' E 132°33'0 0.0 31.1
2016-Jul-22 11:30N 23°00' E 132°33'1 0.7 31.2
2016-Jul-22 10:00N 23°01' E 132°34'0 0.0 31.3
2016-Jul-22 09:45N 23°01' E 132°34'1 1.1 31.4
2016-Jul-22 09:15N 23°01' E 132°34'0 1.0 32.4
2016-Jul-22 09:00N 23°01' E 132°34'0 0.0 32.6
2016-Jul-22 08:15N 23°01' E 132°34'0 0.0 32.8
2016-Jul-22 08:00N 23°01' E 132°34'0 1.3 32.7
2016-Jul-22 07:45N 23°02' E 132°35'0 0.2 32.6
2016-Jul-22 07:30N 23°01' E 132°35'1 0.8 32.7
2016-Jul-22 05:45N 23°02' E 132°36'0 0.0 32.6
2016-Jul-22 05:30N 23°02' E 132°36'1 0.7 32.5
2016-Jul-22 04:00N 23°02' E 132°37'0 0.0 32.4
2016-Jul-22 03:45N 23°02' E 132°37'1 0.5 32.4
2016-Jul-22 01:45N 23°03' E 132°38'0 0.0 31.2
2016-Jul-22 00:15N 23°03' E 132°38'1 0.7 30.7
2016-Jul-21 22:45N 23°03' E 132°39'0 0.0 30.6
2016-Jul-21 22:30N 23°03' E 132°39'1 1.7 30.6
2016-Jul-21 22:00N 23°03' E 132°40'0 0.0 30.6
2016-Jul-21 21:15N 23°03' E 132°40'0 1.5 30.6
2016-Jul-21 21:00N 23°04' E 132°40'0 0.9 30.6
2016-Jul-21 20:30N 23°04' E 132°41'1 3.8 30.6
2016-Jul-21 20:15N 23°04' E 132°42'0 0.2 30.6
2016-Jul-21 18:15N 23°04' E 132°41'0 0.2 30.7
2016-Jul-21 16:45N 23°04' E 132°42'0 0.0 30.7
2016-Jul-21 16:30N 23°04' E 132°42'3 0.9 30.7
2016-Jul-21 12:45N 23°04' E 132°45'0 0.0 30.9
2016-Jul-21 12:30N 23°04' E 132°45'1 1.4 30.9
2016-Jul-21 12:00N 23°04' E 132°46'0 0.0 31.0
2016-Jul-21 11:45N 23°04' E 132°46'1 2.0 31.0
2016-Jul-21 11:00N 23°04' E 132°47'1 0.8 31.0
2016-Jul-21 10:15N 23°04' E 132°48'0 0.0 31.1
2016-Jul-21 10:00N 23°04' E 132°48'1 2.2 31.2
2016-Jul-21 09:45N 23°04' E 132°48'1 0.8 31.2
2016-Jul-21 08:30N 23°05' E 132°49'1 2.4 31.3
2016-Jul-21 08:15N 23°05' E 132°50'0 0.0 31.3
2016-Jul-21 08:00N 23°05' E 132°50'0 0.0 31.3
2016-Jul-21 07:45N 23°05' E 132°50'2 1.1 31.4
2016-Jul-21 05:45N 23°06' E 132°52'2 1.2 31.4
2016-Jul-21 04:15N 23°07' E 132°53'0 0.0 31.0
2016-Jul-21 04:00N 23°07' E 132°53'1 0.4 30.9
2016-Jul-21 00:45N 23°08' E 132°54'1 0.6 30.6
2016-Jul-20 22:45N 23°08' E 132°56'1 2.1 30.4
2016-Jul-20 22:30N 23°08' E 132°56'0 0.0 30.4
2016-Jul-20 22:15N 23°08' E 132°56'0 0.4 30.4
2016-Jul-20 21:45N 23°08' E 132°56'1 1.5 30.4
2016-Jul-20 21:15N 23°09' E 132°57'0 1.6 30.4
2016-Jul-20 21:00N 23°09' E 132°57'1 2.7 30.4
2016-Jul-20 20:45N 23°09' E 132°58'0 0.0 30.4
2016-Jul-20 20:00N 23°09' E 132°58'1 0.7 30.4
2016-Jul-20 18:30N 23°10' E 132°59'0 0.0 30.4
2016-Jul-20 18:15N 23°10' E 132°59'0 0.1 30.4
2016-Jul-20 16:45N 23°10' E 132°59'1 0.2 30.4
2016-Jul-20 13:45N 23°10' E 132°59'0 0.5 30.4
2016-Jul-20 13:00N 23°10' E 132°59'0 0.1 30.4
2016-Jul-20 12:15N 23°10' E 132°59'0 0.0 30.4
2016-Jul-20 12:00N 23°10' E 132°59'1 2.4 30.4
2016-Jul-20 11:30N 23°10' E 133°00'0 0.0 30.5
2016-Jul-20 11:15N 23°10' E 133°00'2 1.9 30.5
2016-Jul-20 10:15N 23°12' E 133°02'0 0.0 30.5
2016-Jul-20 10:00N 23°12' E 133°02'0 0.0 30.6
2016-Jul-20 09:00N 23°12' E 133°02'0 0.2 30.6
2016-Jul-20 08:45N 23°12' E 133°02'0 0.3 30.6
2016-Jul-20 08:30N 23°12' E 133°02'0 0.3 30.7
2016-Jul-20 08:15N 23°12' E 133°02'5 2.2 30.7
2016-Jul-20 06:00N 23°15' E 133°06'0 0.0 30.9
2016-Jul-20 05:45N 23°15' E 133°06'3 1.8 30.9
2016-Jul-20 04:15N 23°18' E 133°07'0 0.1 30.8
2016-Jul-20 01:00N 23°18' E 133°08'0 0.0 30.3
2016-Jul-20 00:45N 23°18' E 133°08'3 2.2 30.3
2016-Jul-19 23:15N 23°20' E 133°10'0 0.0 30.2
2016-Jul-19 23:00N 23°20' E 133°10'0 0.0 30.3
2016-Jul-19 22:45N 23°20' E 133°10'0 0.0 30.3
2016-Jul-19 22:15N 23°20' E 133°10'0 0.1 30.2
2016-Jul-19 21:30N 23°20' E 133°10'1 3.4 30.2
2016-Jul-19 21:15N 23°21' E 133°10'1 3.0 30.2
2016-Jul-19 21:00N 23°21' E 133°10'2 1.2 30.2
2016-Jul-19 19:30N 23°22' E 133°10'0 0.0 30.2
2016-Jul-19 18:45N 23°22' E 133°10'0 0.0 30.2
2016-Jul-19 18:30N 23°22' E 133°10'1 0.8 30.2
2016-Jul-19 17:00N 23°23' E 133°10'1 0.4 30.2
2016-Jul-19 13:30N 23°25' E 133°10'0 0.0 30.3
2016-Jul-19 13:15N 23°25' E 133°10'2 1.0 30.4
2016-Jul-19 11:45N 23°26' E 133°11'0 0.0 30.5
2016-Jul-19 11:30N 23°26' E 133°11'1 1.7 30.5
2016-Jul-19 11:00N 23°26' E 133°12'0 0.0 30.5
2016-Jul-19 10:45N 23°26' E 133°12'0 0.0 30.5
2016-Jul-19 09:30N 23°26' E 133°12'0 0.0 30.6
2016-Jul-19 09:15N 23°26' E 133°12'1 2.2 30.7
2016-Jul-19 09:00N 23°26' E 133°12'2 8.6 30.7
2016-Jul-19 08:45N 23°28' E 133°14'0 0.0 30.7
2016-Jul-19 08:30N 23°28' E 133°14'2 2.8 30.8
2016-Jul-19 07:45N 23°26' E 133°13'2 2.8 30.8
2016-Jul-19 07:00N 23°28' E 133°14'0 0.0 30.9
2016-Jul-19 06:15N 23°28' E 133°14'0 0.0 30.9
2016-Jul-19 06:00N 23°28' E 133°14'1 0.8 30.8
2016-Jul-19 04:30N 23°29' E 133°15'0 0.0 30.8
2016-Jul-19 04:15N 23°29' E 133°15'3 1.1 30.8
2016-Jul-19 01:15N 23°31' E 133°17'4 2.7 30.4
2016-Jul-18 23:45N 23°35' E 133°18'0 0.0 30.4
2016-Jul-18 21:30N 23°35' E 133°18'1 2.7 30.3
2016-Jul-18 21:15N 23°36' E 133°18'0 0.0 30.3
2016-Jul-18 21:00N 23°36' E 133°18'2 2.1 30.3
2016-Jul-18 20:00N 23°37' E 133°19'0 0.0 30.3
2016-Jul-18 19:45N 23°37' E 133°19'0 0.0 30.3
2016-Jul-18 19:30N 23°37' E 133°19'0 0.0 30.4
2016-Jul-18 19:15N 23°37' E 133°19'1 4.1 30.4
2016-Jul-18 19:00N 23°38' E 133°18'0 0.7 30.4
2016-Jul-18 18:45N 23°38' E 133°18'1 1.0 30.4
2016-Jul-18 17:15N 23°39' E 133°18'0 0.0 30.4
2016-Jul-18 17:00N 23°39' E 133°18'3 0.9 30.4
2016-Jul-18 13:45N 23°42' E 133°19'0 0.2 30.4
2016-Jul-18 13:00N 23°42' E 133°20'0 0.0 30.4
2016-Jul-18 12:45N 23°42' E 133°20'0 0.6 30.4
2016-Jul-18 12:00N 23°42' E 133°19'1 1.6 30.4
2016-Jul-18 11:15N 23°44' E 133°20'0 0.0 30.5
2016-Jul-18 11:00N 23°44' E 133°20'0 0.0 30.5
2016-Jul-18 10:00N 23°44' E 133°20'0 0.0 30.5
2016-Jul-18 09:45N 23°44' E 133°20'0 0.5 30.5
2016-Jul-18 09:15N 23°43' E 133°20'0 1.8 30.5
2016-Jul-18 09:00N 23°44' E 133°20'0 0.5 30.5
2016-Jul-18 08:15N 23°44' E 133°20'0 0.4 30.6
2016-Jul-18 07:30N 23°44' E 133°20'0 0.0 30.6
2016-Jul-18 07:15N 23°44' E 133°20'1 0.9 30.6
2016-Jul-18 06:30N 23°45' E 133°20'1 5.4 30.5
2016-Jul-18 06:15N 23°46' E 133°21'0 0.0 30.5
2016-Jul-18 04:45N 23°46' E 133°21'0 0.0 30.5
2016-Jul-18 04:30N 23°46' E 133°21'2 0.9 30.5
2016-Jul-18 01:45N 23°48' E 133°23'1 0.8 30.4
2016-Jul-18 00:00N 23°49' E 133°23'2 0.9 30.3
2016-Jul-17 21:45N 23°51' E 133°24'0 0.0 30.2
2016-Jul-17 21:30N 23°51' E 133°24'1 1.1 30.2
2016-Jul-17 20:15N 23°52' E 133°24'0 0.0 30.2
2016-Jul-17 20:00N 23°52' E 133°24'1 2.2 30.3
2016-Jul-17 19:45N 23°52' E 133°24'1 1.0 30.2
2016-Jul-17 19:00N 23°53' E 133°24'1 0.5 30.3
2016-Jul-17 17:30N 23°54' E 133°24'0 0.0 30.3
2016-Jul-17 17:15N 23°54' E 133°24'2 0.5 30.3
2016-Jul-17 13:15N 23°56' E 133°24'0 0.4 30.4
2016-Jul-17 12:30N 23°56' E 133°24'0 0.0 30.4
2016-Jul-17 12:15N 23°56' E 133°24'0 1.0 30.4
2016-Jul-17 11:45N 23°56' E 133°24'0 0.5 30.4
2016-Jul-17 10:45N 23°57' E 133°24'0 0.0 30.4
2016-Jul-17 09:45N 23°57' E 133°24'0 1.2 30.4
2016-Jul-17 09:30N 23°57' E 133°24'0 0.7 30.4
2016-Jul-17 09:15N 23°57' E 133°24'0 0.0 30.4
2016-Jul-17 09:00N 23°57' E 133°24'0 0.0 30.4
2016-Jul-17 08:45N 23°57' E 133°24'0 0.3 30.4
2016-Jul-17 08:00N 23°57' E 133°24'0 0.4 30.4
2016-Jul-17 07:30N 23°57' E 133°24'1 0.7 30.4
2016-Jul-17 06:30N 23°57' E 133°25'0 0.0 30.4
2016-Jul-17 05:00N 23°57' E 133°25'0 0.0 30.4
2016-Jul-17 04:45N 23°57' E 133°25'2 0.6 30.4
2016-Jul-17 02:00N 23°58' E 133°26'3 1.7 30.3
2016-Jul-17 00:30N 23°60' E 133°28'0 0.0 30.2
2016-Jul-17 00:15N 23°60' E 133°28'0 0.0 30.2
2016-Jul-16 22:30N 23°60' E 133°28'0 1.7 30.2
2016-Jul-16 22:15N 24°00' E 133°28'0 0.0 30.2
2016-Jul-16 22:00N 24°00' E 133°28'0 0.0 30.2
2016-Jul-16 21:45N 24°00' E 133°28'2 1.7 30.2
2016-Jul-16 20:45N 24°02' E 133°29'0 1.8 30.2
2016-Jul-16 20:30N 24°01' E 133°30'0 1.0 30.2
2016-Jul-16 20:15N 24°01' E 133°30'1 0.9 30.2
2016-Jul-16 19:15N 24°02' E 133°30'1 1.0 30.2
2016-Jul-16 17:45N 24°04' E 133°31'313.7 30.3
2016-Jul-16 17:30N 24°07' E 133°32'0 0.0 30.3
2016-Jul-16 13:45N 24°07' E 133°32'1 1.1 30.4
2016-Jul-16 12:45N 24°08' E 133°32'0 0.0 30.4
2016-Jul-16 12:30N 24°08' E 133°32'1 2.1 30.4
2016-Jul-16 12:00N 24°09' E 133°32'0 0.0 30.5
2016-Jul-16 11:45N 24°09' E 133°32'1 1.2 30.5
2016-Jul-16 11:00N 24°10' E 133°32'2 1.6 30.5
2016-Jul-16 10:00N 24°11' E 133°31'0 0.0 30.6
2016-Jul-16 09:30N 24°11' E 133°31'1 2.8 30.6
2016-Jul-16 09:15N 24°11' E 133°31'0 0.0 30.6
2016-Jul-16 08:30N 24°11' E 133°31'0 0.5 30.7
2016-Jul-16 08:15N 24°12' E 133°31'0 0.7 30.7
2016-Jul-16 07:45N 24°11' E 133°31'2 2.1 30.7
2016-Jul-16 06:45N 24°13' E 133°29'0 0.1 30.6
2016-Jul-16 05:00N 24°13' E 133°29'2 0.6 30.5
2016-Jul-16 02:15N 24°13' E 133°27'0 0.0 30.3
2016-Jul-16 00:45N 24°13' E 133°27'0 0.2 30.2
2016-Jul-15 22:45N 24°14' E 133°27'0 0.4 30.2
2016-Jul-15 22:15N 24°14' E 133°27'0 0.0 30.2
2016-Jul-15 22:00N 24°14' E 133°27'1 1.0 30.2
2016-Jul-15 21:15N 24°14' E 133°28'0 0.0 30.2
2016-Jul-15 21:00N 24°14' E 133°28'0 0.0 30.2
2016-Jul-15 20:45N 24°14' E 133°28'0 0.0 30.2
2016-Jul-15 20:30N 24°14' E 133°28'1 0.6 30.2
2016-Jul-15 19:30N 24°15' E 133°28'0 0.0 30.2
2016-Jul-15 19:15N 24°15' E 133°28'2 1.2 30.2
2016-Jul-15 17:45N 24°17' E 133°28'0 0.0 30.2
2016-Jul-15 17:30N 24°17' E 133°28'   30.2

Dump ship's entire track history